Time;durP1;ratioP1;P1;durP2;ratioP2;P2;SDS_P1;SDS_P2;PMS_P1;PMS_P2;Temp;Humidity;BMP_temperature;BMP_pressure;BME280_temperature;BME280_humidity;BME280_pressure;Samples;Min_cycle;Max_cycle;Signal;HPM_P1;HPM_P2
2021/08/16 00:00:22;;;;;;;;;;;15.30;99.90;;;;;;5075274;28;19904;-80
2021/08/16 00:02:48;;;;;;;;;;;15.30;99.90;;;;;;5074526;28;20365;-80
2021/08/16 00:05:14;;;;;;;;;;;15.40;99.90;;;;;;5075757;28;19911;-80
2021/08/16 00:07:40;;;;;;;;;;;15.50;99.90;;;;;;5074993;28;20030;-80
2021/08/16 00:10:06;;;;;;;;;;;15.60;99.90;;;;;;5075343;28;19905;-80
2021/08/16 00:12:32;;;;;;;;;;;15.60;99.90;;;;;;5076005;28;19912;-80
2021/08/16 00:14:57;;;;;;;;;;;15.70;99.90;;;;;;5074722;28;19927;-80
2021/08/16 00:17:23;;;;;;;;;;;15.70;99.90;;;;;;5058310;28;19921;-80
2021/08/16 00:19:48;;;;;;;;;;;15.70;99.90;;;;;;5059758;28;19912;-80
2021/08/16 00:22:14;;;;;;;;;;;15.80;99.90;;;;;;5058065;28;19915;-80
2021/08/16 00:24:40;;;;;;;;;;;15.70;99.90;;;;;;5059617;28;19912;-80
2021/08/16 00:27:05;;;;;;;;;;;15.70;99.90;;;;;;5074613;28;19904;-79
2021/08/16 00:29:31;;;;;;;;;;;15.70;99.90;;;;;;5074954;28;19913;-80
2021/08/16 00:31:56;;;;;;;;;;;15.80;99.90;;;;;;5075262;28;19927;-80
2021/08/16 00:34:22;;;;;;;;;;;15.70;99.90;;;;;;5057849;28;19911;-80
2021/08/16 00:36:47;;;;;;;;;;;15.80;99.90;;;;;;5057810;28;19905;-80
2021/08/16 00:39:13;;;;;;;;;;;15.90;99.90;;;;;;5074448;28;19904;-81
2021/08/16 00:41:39;;;;;;;;;;;15.80;99.90;;;;;;5074669;28;19915;-80
2021/08/16 00:44:06;;;;;;;;;;;15.80;99.90;;;;;;5075102;28;19912;-80
2021/08/16 00:46:32;;;;;;;;;;;15.80;99.90;;;;;;5074512;28;20320;-80
2021/08/16 00:48:57;;;;;;;;;;;15.80;99.90;;;;;;5058762;28;19909;-80
2021/08/16 00:51:25;;;;;;;;;;;15.90;99.90;;;;;;5074730;28;19908;-80
2021/08/16 00:53:51;;;;;;;;;;;15.80;99.90;;;;;;5073981;28;20003;-80
2021/08/16 00:56:17;;;;;;;;;;;15.70;99.90;;;;;;5058480;28;20606;-80
2021/08/16 00:58:42;;;;;;;;;;;15.70;99.90;;;;;;5073306;28;19905;-80
2021/08/16 01:01:08;;;;;;;;;;;15.70;99.90;;;;;;5073649;28;19905;-80
2021/08/16 01:03:34;;;;;;;;;;;15.70;99.90;;;;;;5057314;28;19958;-80
2021/08/16 01:05:59;;;;;;;;;;;15.70;99.90;;;;;;5072839;28;20019;-80
2021/08/16 01:08:25;;;;;;;;;;;15.60;99.90;;;;;;5073757;28;19905;-80
2021/08/16 01:10:51;;;;;;;;;;;15.70;99.90;;;;;;5074144;28;19904;-80
2021/08/16 01:13:17;;;;;;;;;;;15.80;99.90;;;;;;5073661;28;19905;-80
2021/08/16 01:16:02;;;;;;;;;;;15.80;99.90;;;;;;5073662;28;19930;-80
2021/08/16 01:18:32;;;;;;;;;;;15.90;99.90;;;;;;5073886;28;19904;-80
2021/08/16 01:20:58;;;;;;;;;;;16.00;99.90;;;;;;5073715;28;20349;-79
2021/08/16 01:23:24;;;;;;;;;;;16.00;99.90;;;;;;5074171;28;19915;-80
2021/08/16 01:25:50;;;;;;;;;;;16.00;99.90;;;;;;5073272;28;20388;-81
2021/08/16 01:28:16;;;;;;;;;;;16.00;99.90;;;;;;5073602;28;19905;-80
2021/08/16 01:30:42;;;;;;;;;;;16.00;99.90;;;;;;5074221;28;20319;-80
2021/08/16 01:33:07;;;;;;;;;;;15.90;99.90;;;;;;5057937;28;19905;-81
2021/08/16 01:35:33;;;;;;;;;;;15.90;99.90;;;;;;5057561;28;19904;-80
2021/08/16 01:37:58;;;;;;;;;;;15.70;99.90;;;;;;5072908;28;19905;-80
2021/08/16 01:40:24;;;;;;;;;;;15.70;99.90;;;;;;5072560;28;19916;-80
2021/08/16 01:42:49;;;;;;;;;;;15.70;99.90;;;;;;5072966;28;19916;-80
2021/08/16 01:45:15;;;;;;;;;;;15.70;99.90;;;;;;5072865;28;19905;-80
2021/08/16 01:47:41;;;;;;;;;;;15.60;99.90;;;;;;5072089;28;20005;-80
2021/08/16 01:50:06;;;;;;;;;;;15.60;99.90;;;;;;5073382;28;19912;-80
2021/08/16 01:52:32;;;;;;;;;;;15.60;99.90;;;;;;5057641;28;19905;-80
2021/08/16 01:54:57;;;;;;;;;;;15.60;99.90;;;;;;5072854;28;19996;-80
2021/08/16 01:57:23;;;;;;;;;;;15.60;99.90;;;;;;5071616;28;19908;-80
2021/08/16 01:59:49;;;;;;;;;;;15.60;99.90;;;;;;5053311;28;19905;-82
2021/08/16 02:02:14;;;;;;;;;;;15.60;99.90;;;;;;5069458;28;19912;-82
2021/08/16 02:04:40;;;;;;;;;;;15.60;99.90;;;;;;5070630;28;20003;-80
2021/08/16 02:07:05;;;;;;;;;;;15.60;99.90;;;;;;5055112;28;19936;-80
2021/08/16 02:09:31;;;;;;;;;;;15.60;99.90;;;;;;5070268;28;19976;-80
2021/08/16 02:11:56;;;;;;;;;;;15.60;99.90;;;;;;5072212;28;19905;-80
2021/08/16 02:14:22;;;;;;;;;;;15.70;99.90;;;;;;5056597;28;19924;-80
2021/08/16 02:16:47;;;;;;;;;;;15.70;99.90;;;;;;5072163;28;19944;-80
2021/08/16 02:19:13;;;;;;;;;;;15.60;99.90;;;;;;5057399;28;19911;-80
2021/08/16 02:21:39;;;;;;;;;;;15.60;99.90;;;;;;5071738;28;20419;-80
2021/08/16 02:24:04;;;;;;;;;;;15.50;99.90;;;;;;5072094;28;19999;-80
2021/08/16 02:26:30;;;;;;;;;;;15.60;99.90;;;;;;5056561;28;19912;-80
2021/08/16 02:28:55;;;;;;;;;;;15.60;99.90;;;;;;5073153;28;19963;-80
2021/08/16 02:31:23;;;;;;;;;;;15.70;99.90;;;;;;5072327;28;19984;-80
2021/08/16 02:33:52;;;;;;;;;;;15.70;99.90;;;;;;5071770;28;19905;-81
2021/08/16 02:36:18;;;;;;;;;;;15.70;99.90;;;;;;5056634;28;19998;-80
2021/08/16 02:38:43;;;;;;;;;;;15.70;99.90;;;;;;5076697;28;19905;-80
2021/08/16 02:41:09;;;;;;;;;;;15.80;99.90;;;;;;5076235;28;19972;-80
2021/08/16 02:43:34;;;;;;;;;;;15.70;99.90;;;;;;5077064;28;19905;-80
2021/08/16 02:46:00;;;;;;;;;;;15.70;99.90;;;;;;5075672;28;19911;-80
2021/08/16 02:48:25;;;;;;;;;;;15.60;99.90;;;;;;5061299;28;20303;-81
2021/08/16 02:50:51;;;;;;;;;;;15.70;99.90;;;;;;5060491;28;19912;-80
2021/08/16 02:53:17;;;;;;;;;;;15.70;99.90;;;;;;5062057;28;19928;-80
2021/08/16 02:55:42;;;;;;;;;;;15.60;99.90;;;;;;5077152;28;19905;-80
2021/08/16 02:58:08;;;;;;;;;;;15.70;99.90;;;;;;5076653;28;20374;-83
2021/08/16 03:00:33;;;;;;;;;;;15.70;99.90;;;;;;5060358;28;20329;-80
2021/08/16 03:02:59;;;;;;;;;;;15.70;99.90;;;;;;5076600;28;19908;-80
2021/08/16 03:05:24;;;;;;;;;;;15.70;99.90;;;;;;5076386;28;19905;-80
2021/08/16 03:07:50;;;;;;;;;;;15.70;99.90;;;;;;5075810;28;19908;-80
2021/08/16 03:10:15;;;;;;;;;;;15.70;99.90;;;;;;5076088;28;19905;-80
2021/08/16 03:12:41;;;;;;;;;;;15.70;99.90;;;;;;5058959;28;20390;-80
2021/08/16 03:15:07;;;;;;;;;;;15.70;99.90;;;;;;5060110;28;19919;-80
2021/08/16 03:17:33;;;;;;;;;;;15.70;99.90;;;;;;5075729;28;20001;-80
2021/08/16 03:19:58;;;;;;;;;;;15.70;99.90;;;;;;5075622;28;19917;-80
2021/08/16 03:22:24;;;;;;;;;;;15.70;99.90;;;;;;5060673;28;19909;-80
2021/08/16 03:24:49;;;;;;;;;;;15.60;99.90;;;;;;5058370;28;19909;-80
2021/08/16 03:27:15;;;;;;;;;;;15.60;99.90;;;;;;5076664;28;19995;-80
2021/08/16 03:29:40;;;;;;;;;;;15.60;99.90;;;;;;5075430;28;19904;-80
2021/08/16 03:32:06;;;;;;;;;;;15.60;99.90;;;;;;5075379;28;19908;-80
2021/08/16 03:34:31;;;;;;;;;;;15.60;99.90;;;;;;5059367;28;19916;-80
2021/08/16 03:36:57;;;;;;;;;;;15.50;99.90;;;;;;5075162;28;19905;-80
2021/08/16 03:39:23;;;;;;;;;;;15.50;99.90;;;;;;5074911;28;19905;-80
2021/08/16 03:41:48;;;;;;;;;;;15.50;99.90;;;;;;5074797;28;19931;-81
2021/08/16 03:44:14;;;;;;;;;;;15.50;99.90;;;;;;5075279;28;19995;-80
2021/08/16 03:46:39;;;;;;;;;;;15.50;99.90;;;;;;5075008;28;20366;-80
2021/08/16 03:49:05;;;;;;;;;;;15.40;99.90;;;;;;5074212;28;19905;-80
2021/08/16 03:51:31;;;;;;;;;;;15.40;99.90;;;;;;5075309;28;19943;-80
2021/08/16 03:53:57;;;;;;;;;;;15.40;99.90;;;;;;5075066;28;19905;-80
2021/08/16 03:56:23;;;;;;;;;;;15.30;99.90;;;;;;5074380;28;19915;-80
2021/08/16 03:58:48;;;;;;;;;;;15.30;99.90;;;;;;5074978;28;20453;-80
2021/08/16 04:01:14;;;;;;;;;;;15.20;99.90;;;;;;5073609;28;19911;-80
2021/08/16 04:03:41;;;;;;;;;;;15.20;99.90;;;;;;5058841;28;20448;-80
2021/08/16 04:06:07;;;;;;;;;;;15.20;99.90;;;;;;5057776;28;19905;-80
2021/08/16 04:08:33;;;;;;;;;;;15.20;99.90;;;;;;5075114;28;19911;-80
2021/08/16 04:10:59;;;;;;;;;;;15.20;99.90;;;;;;5074669;28;19950;-80
2021/08/16 04:13:25;;;;;;;;;;;15.20;99.90;;;;;;5074875;28;19912;-80
2021/08/16 04:15:50;;;;;;;;;;;15.20;99.90;;;;;;5074694;28;19999;-80
2021/08/16 04:18:16;;;;;;;;;;;15.30;99.90;;;;;;5058663;28;19905;-80
2021/08/16 04:20:41;;;;;;;;;;;15.40;99.90;;;;;;5058763;28;19931;-80
2021/08/16 04:23:08;;;;;;;;;;;15.40;99.90;;;;;;5057562;28;19920;-80
2021/08/16 04:25:34;;;;;;;;;;;15.40;99.90;;;;;;5074154;28;19939;-80
2021/08/16 04:27:59;;;;;;;;;;;15.50;99.90;;;;;;5059395;28;19905;-81
2021/08/16 04:30:25;;;;;;;;;;;15.60;99.90;;;;;;5058605;28;19912;-80
2021/08/16 04:32:50;;;;;;;;;;;15.60;99.90;;;;;;5073883;28;19908;-80
2021/08/16 04:35:16;;;;;;;;;;;15.60;99.90;;;;;;5074114;28;20089;-81
2021/08/16 04:37:41;;;;;;;;;;;15.60;99.90;;;;;;5059460;28;19909;-80
2021/08/16 04:40:08;;;;;;;;;;;15.60;99.90;;;;;;5075158;28;19908;-80
2021/08/16 04:42:34;;;;;;;;;;;15.70;99.90;;;;;;5058184;28;19915;-81
2021/08/16 04:45:00;;;;;;;;;;;15.70;99.90;;;;;;5074683;28;19904;-81
2021/08/16 04:47:25;;;;;;;;;;;15.70;99.90;;;;;;5057514;28;19905;-81
2021/08/16 04:49:53;;;;;;;;;;;15.80;99.90;;;;;;5074213;28;19905;-81
2021/08/16 04:52:19;;;;;;;;;;;15.80;99.90;;;;;;5074115;28;20371;-80
2021/08/16 04:54:45;;;;;;;;;;;15.80;99.90;;;;;;5074564;28;19905;-81
2021/08/16 04:57:11;;;;;;;;;;;15.80;99.90;;;;;;5059005;28;19909;-81
2021/08/16 04:59:36;;;;;;;;;;;15.80;99.90;;;;;;5073156;28;19908;-81
2021/08/16 05:02:02;;;;;;;;;;;15.90;99.90;;;;;;5075110;28;19912;-81
2021/08/16 05:04:27;;;;;;;;;;;15.90;99.90;;;;;;5074982;28;20360;-81
2021/08/16 05:06:53;;;;;;;;;;;15.90;99.90;;;;;;5058516;28;19905;-81
2021/08/16 05:09:19;;;;;;;;;;;15.90;99.90;;;;;;5055141;28;19920;-80
2021/08/16 05:11:44;;;;;;;;;;;15.90;99.90;;;;;;5070937;28;19905;-80
2021/08/16 05:14:10;;;;;;;;;;;15.90;99.90;;;;;;5071209;28;20002;-81
2021/08/16 05:16:36;;;;;;;;;;;16.00;99.90;;;;;;5055834;28;20285;-81
2021/08/16 05:19:02;;;;;;;;;;;16.00;99.90;;;;;;5071782;28;19908;-80
2021/08/16 05:21:30;;;;;;;;;;;16.00;99.90;;;;;;5072910;28;19972;-81
2021/08/16 05:23:55;;;;;;;;;;;16.10;99.90;;;;;;5073055;28;20358;-81
2021/08/16 05:26:21;;;;;;;;;;;16.10;99.90;;;;;;5046998;28;19916;-81
2021/08/16 05:28:46;;;;;;;;;;;16.10;99.90;;;;;;5048181;28;19905;-81
2021/08/16 05:31:12;;;;;;;;;;;16.10;99.90;;;;;;5047229;28;19908;-81
2021/08/16 05:33:37;;;;;;;;;;;16.10;99.90;;;;;;5049957;28;19913;-81
2021/08/16 05:36:03;;;;;;;;;;;16.20;99.90;;;;;;5045346;28;19963;-81
2021/08/16 05:38:28;;;;;;;;;;;16.20;99.90;;;;;;5049804;28;19995;-81
2021/08/16 05:40:54;;;;;;;;;;;16.30;99.90;;;;;;5043252;28;19969;-80
2021/08/16 05:43:19;;;;;;;;;;;16.40;99.90;;;;;;5046576;28;19988;-81
2021/08/16 05:45:45;;;;;;;;;;;16.50;99.90;;;;;;5046445;28;19963;-81
2021/08/16 05:48:10;;;;;;;;;;;16.50;99.90;;;;;;5053677;28;19904;-80
2021/08/16 05:50:36;;;;;;;;;;;16.50;99.90;;;;;;5055793;28;20365;-81
2021/08/16 05:53:02;;;;;;;;;;;16.50;99.90;;;;;;5054343;28;19915;-81
2021/08/16 05:55:27;;;;;;;;;;;16.60;99.90;;;;;;5073270;28;19927;-81
2021/08/16 05:57:54;;;;;;;;;;;16.70;99.90;;;;;;5044894;28;19909;-81
2021/08/16 06:00:19;;;;;;;;;;;16.70;99.90;;;;;;5046224;28;19905;-81
2021/08/16 06:02:45;;;;;;;;;;;16.70;99.90;;;;;;5045236;28;19916;-81
2021/08/16 06:05:10;;;;;;;;;;;16.80;99.90;;;;;;5036888;28;20009;-81
2021/08/16 06:07:36;;;;;;;;;;;16.80;99.90;;;;;;5035571;28;20301;-81
2021/08/16 06:10:02;;;;;;;;;;;16.80;99.90;;;;;;5041395;28;19920;-81
2021/08/16 06:12:28;;;;;;;;;;;16.90;99.90;;;;;;5057723;28;19917;-81
2021/08/16 06:14:53;;;;;;;;;;;16.90;99.90;;;;;;5057687;28;19921;-81
2021/08/16 06:17:19;;;;;;;;;;;16.90;99.90;;;;;;5059414;28;20450;-81
2021/08/16 06:19:45;;;;;;;;;;;16.90;99.90;;;;;;5058045;28;20282;-81
2021/08/16 06:22:11;;;;;;;;;;;16.90;99.90;;;;;;5058060;28;19948;-81
2021/08/16 06:24:37;;;;;;;;;;;16.80;99.90;;;;;;5058564;28;20431;-81
2021/08/16 06:27:03;;;;;;;;;;;16.80;99.90;;;;;;5039892;28;20251;-81
2021/08/16 06:29:29;;;;;;;;;;;16.80;99.90;;;;;;5074025;28;20155;-81
2021/08/16 06:31:54;;;;;;;;;;;16.70;99.90;;;;;;5049116;28;20242;-81
2021/08/16 06:34:20;;;;;;;;;;;16.60;99.90;;;;;;5050190;28;19920;-82
2021/08/16 06:36:51;;;;;;;;;;;16.40;99.90;;;;;;5055654;28;19945;-82
2021/08/16 06:39:21;;;;;;;;;;;16.40;99.90;;;;;;5059551;28;19947;-82
2021/08/16 06:41:48;;;;;;;;;;;16.40;99.90;;;;;;5062534;28;19919;-83
2021/08/16 06:44:13;;;;;;;;;;;16.30;99.90;;;;;;5068307;28;19900;-82
2021/08/16 06:46:40;;;;;;;;;;;16.30;99.90;;;;;;5059242;28;19909;-83
2021/08/16 06:49:05;;;;;;;;;;;16.30;99.90;;;;;;5067559;28;19982;-82
2021/08/16 06:51:31;;;;;;;;;;;16.30;99.90;;;;;;5058301;28;19909;-82
2021/08/16 06:53:56;;;;;;;;;;;16.30;99.90;;;;;;5069874;28;19913;-82
2021/08/16 06:56:22;;;;;;;;;;;16.40;99.90;;;;;;5061081;28;19905;-82
2021/08/16 06:58:47;;;;;;;;;;;16.50;99.90;;;;;;5059420;28;19912;-82
2021/08/16 07:01:23;;;;;;;;;;;16.60;99.90;;;;;;5067914;28;19904;-82
2021/08/16 07:03:49;;;;;;;;;;;16.60;99.90;;;;;;5071649;28;19913;-82
2021/08/16 07:06:15;;;;;;;;;;;16.70;99.90;;;;;;5058757;28;19984;-82
2021/08/16 07:08:40;;;;;;;;;;;16.60;99.90;;;;;;5057469;28;20225;-83
2021/08/16 07:11:06;;;;;;;;;;;16.70;99.90;;;;;;5068735;28;19928;-83
2021/08/16 07:13:31;;;;;;;;;;;16.70;99.90;;;;;;5058106;28;19944;-83
2021/08/16 07:15:57;;;;;;;;;;;16.90;99.90;;;;;;5056412;28;19920;-82
2021/08/16 07:18:22;;;;;;;;;;;17.00;99.90;;;;;;5085872;28;19893;-82
2021/08/16 07:20:48;;;;;;;;;;;17.00;99.90;;;;;;5060329;28;19920;-82
2021/08/16 07:23:13;;;;;;;;;;;17.10;99.90;;;;;;5057927;28;19943;-82
2021/08/16 07:25:39;;;;;;;;;;;17.20;99.90;;;;;;5066234;28;19916;-82
2021/08/16 07:28:05;;;;;;;;;;;17.20;99.90;;;;;;5049693;28;20362;-82
2021/08/16 07:30:30;;;;;;;;;;;17.20;99.90;;;;;;5049269;28;19909;-82
2021/08/16 07:32:56;;;;;;;;;;;17.10;99.90;;;;;;5057626;28;19916;-82
2021/08/16 07:35:21;;;;;;;;;;;17.00;99.90;;;;;;5042887;28;19913;-83
2021/08/16 07:37:47;;;;;;;;;;;17.00;99.90;;;;;;5052309;28;19909;-83
2021/08/16 07:40:13;;;;;;;;;;;17.00;99.90;;;;;;5045132;28;19925;-83
2021/08/16 07:42:39;;;;;;;;;;;16.90;99.90;;;;;;5058994;28;19958;-82
2021/08/16 07:45:05;;;;;;;;;;;16.70;99.90;;;;;;5062814;28;19909;-83
2021/08/16 07:47:30;;;;;;;;;;;16.80;99.90;;;;;;5058277;28;20409;-83
2021/08/16 07:49:56;;;;;;;;;;;16.80;99.90;;;;;;5056190;28;19915;-83
2021/08/16 07:52:21;;;;;;;;;;;16.80;99.90;;;;;;5061002;28;19912;-83
2021/08/16 07:54:47;;;;;;;;;;;16.80;99.90;;;;;;5047275;28;19909;-82
2021/08/16 07:57:12;;;;;;;;;;;16.80;99.90;;;;;;5046381;28;20386;-82
2021/08/16 07:59:38;;;;;;;;;;;16.90;99.90;;;;;;5054976;28;19928;-82
2021/08/16 08:02:04;;;;;;;;;;;16.90;99.90;;;;;;5055973;28;19920;-82
2021/08/16 08:04:29;;;;;;;;;;;16.90;99.90;;;;;;5058893;28;19915;-81
2021/08/16 08:06:55;;;;;;;;;;;16.80;99.90;;;;;;5054223;28;19919;-81
2021/08/16 08:09:21;;;;;;;;;;;16.70;99.90;;;;;;5052097;28;19909;-81
2021/08/16 08:11:46;;;;;;;;;;;16.80;99.90;;;;;;5061684;28;20320;-80
2021/08/16 08:14:12;;;;;;;;;;;16.80;99.90;;;;;;5060189;28;19958;-81
2021/08/16 08:16:38;;;;;;;;;;;16.90;99.90;;;;;;5048728;28;19916;-81
2021/08/16 08:19:03;;;;;;;;;;;17.00;99.90;;;;;;5046994;28;20358;-81
2021/08/16 08:21:29;;;;;;;;;;;17.10;99.90;;;;;;5047422;28;19915;-81
2021/08/16 08:23:54;;;;;;;;;;;17.10;99.90;;;;;;5052474;28;19908;-81
2021/08/16 08:26:19;;;;;;;;;;;17.30;99.90;;;;;;5046344;28;20399;-81
2021/08/16 08:28:45;;;;;;;;;;;17.40;99.90;;;;;;5057417;28;19905;-81
2021/08/16 08:31:10;;;;;;;;;;;17.40;99.90;;;;;;5056593;28;19940;-81
2021/08/16 08:33:37;;;;;;;;;;;17.50;99.90;;;;;;5056903;28;20369;-80
2021/08/16 08:36:03;;;;;;;;;;;17.50;99.90;;;;;;5074125;28;19905;-81
2021/08/16 08:38:29;;;;;;;;;;;17.40;99.90;;;;;;5067999;28;19955;-80
2021/08/16 08:40:57;;;;;;;;;;;17.60;99.90;;;;;;5060430;28;20285;-81
2021/08/16 08:43:23;;;;;;;;;;;17.70;99.90;;;;;;5055521;28;19909;-81
2021/08/16 08:45:51;;;;;;;;;;;17.70;99.90;;;;;;5052987;28;20018;-81
2021/08/16 08:48:18;;;;;;;;;;;17.60;99.90;;;;;;5057129;28;19935;-81
2021/08/16 08:50:46;;;;;;;;;;;17.60;99.90;;;;;;5058933;28;19913;-80
2021/08/16 08:53:11;;;;;;;;;;;17.80;99.90;;;;;;5054480;28;19995;-80
2021/08/16 08:55:37;;;;;;;;;;;18.00;99.90;;;;;;5053338;28;19943;-81
2021/08/16 08:58:05;;;;;;;;;;;18.10;99.90;;;;;;5058282;28;19916;-80
2021/08/16 09:00:33;;;;;;;;;;;18.40;99.90;;;;;;5052500;28;20293;-81
2021/08/16 09:02:59;;;;;;;;;;;18.50;99.90;;;;;;5053057;28;19920;-80
2021/08/16 09:05:25;;;;;;;;;;;18.80;99.90;;;;;;5045617;28;19944;-80
2021/08/16 09:07:51;;;;;;;;;;;18.90;99.90;;;;;;5056678;28;19928;-80
2021/08/16 09:10:17;;;;;;;;;;;19.50;99.90;;;;;;5059587;28;19911;-80
2021/08/16 09:12:43;;;;;;;;;;;19.70;99.90;;;;;;5061427;28;19919;-80
2021/08/16 09:15:15;;;;;;;;;;;19.90;99.90;;;;;;5060643;28;19955;-80
2021/08/16 09:17:41;;;;;;;;;;;20.70;99.90;;;;;;5059489;28;19922;-80
2021/08/16 09:20:27;;;;;;;;;;;21.20;99.90;;;;;;5060648;28;19944;-80
2021/08/16 09:23:02;;;;;;;;;;;21.70;99.90;;;;;;5056945;28;20011;-80
2021/08/16 09:25:31;;;;;;;;;;;22.00;99.90;;;;;;5070296;28;19999;-80
2021/08/16 09:27:57;;;;;;;;;;;21.00;99.90;;;;;;5051240;28;20358;-80
2021/08/16 09:30:33;;;;;;;;;;;21.20;99.90;;;;;;5074781;28;19916;-80
2021/08/16 09:33:09;;;;;;;;;;;21.70;99.90;;;;;;5046098;28;20129;-80
2021/08/16 09:35:34;;;;;;;;;;;21.90;99.90;;;;;;5047198;28;20328;-79
2021/08/16 09:38:00;;;;;;;;;;;22.50;99.90;;;;;;5056038;28;19916;-79
2021/08/16 09:40:25;;;;;;;;;;;22.30;99.90;;;;;;5052309;28;19909;-80
2021/08/16 09:42:52;;;;;;;;;;;22.50;99.90;;;;;;5038561;28;19932;-80
2021/08/16 09:45:29;;;;;;;;;;;23.00;99.90;;;;;;5054588;28;19931;-80
2021/08/16 09:47:59;;;;;;;;;;;23.00;99.90;;;;;;5055280;28;19904;-80
2021/08/16 09:50:37;;;;;;;;;;;22.30;99.90;;;;;;5057637;28;19944;-80
2021/08/16 09:53:10;;;;;;;;;;;21.90;99.90;;;;;;5055466;28;19912;-81
2021/08/16 09:55:38;;;;;;;;;;;21.40;99.90;;;;;;5055866;28;19955;-80
2021/08/16 09:58:05;;;;;;;;;;;21.10;99.90;;;;;;5057569;28;19978;-80
2021/08/16 10:00:31;;;;;;;;;;;21.20;99.90;;;;;;5056171;28;20387;-80
2021/08/16 10:02:56;;;;;;;;;;;21.40;99.90;;;;;;5056477;28;19909;-80
2021/08/16 10:05:22;;;;;;;;;;;21.60;99.90;;;;;;5054738;28;20366;-80
2021/08/16 10:07:48;;;;;;;;;;;21.70;99.90;;;;;;5072281;28;19905;-80
2021/08/16 10:10:15;;;;;;;;;;;21.70;99.90;;;;;;5046979;28;19932;-80
2021/08/16 10:12:41;;;;;;;;;;;21.80;99.90;;;;;;5055006;28;19911;-80
2021/08/16 10:15:09;;;;;;;;;;;23.00;99.90;;;;;;5050482;28;19955;-80
2021/08/16 10:17:39;;;;;;;;;;;23.80;99.90;;;;;;5056661;28;19916;-80
2021/08/16 10:20:05;;;;;;;;;;;24.60;98.40;;;;;;5057290;28;19909;-80
2021/08/16 10:22:40;;;;;;;;;;;24.10;99.40;;;;;;5041563;28;19963;-80
2021/08/16 10:25:13;;;;;;;;;;;24.80;98.50;;;;;;5047655;28;19915;-80
2021/08/16 10:27:39;;;;;;;;;;;24.30;97.90;;;;;;5055818;28;19920;-80
2021/08/16 10:30:06;;;;;;;;;;;23.20;99.90;;;;;;5056667;28;19905;-80
2021/08/16 10:32:31;;;;;;;;;;;23.00;99.90;;;;;;5054916;28;20389;-80
2021/08/16 10:35:11;;;;;;;;;;;22.90;99.90;;;;;;5054469;28;19908;-80
2021/08/16 10:37:38;;;;;;;;;;;23.20;99.90;;;;;;5055619;28;19908;-80
2021/08/16 10:40:27;;;;;;;;;;;23.20;99.90;;;;;;5056666;28;19912;-79
2021/08/16 10:42:54;;;;;;;;;;;22.50;99.90;;;;;;5057280;28;20007;-79
2021/08/16 10:45:24;;;;;;;;;;;21.70;99.90;;;;;;5056519;28;19908;-79
2021/08/16 10:47:58;;;;;;;;;;;21.10;99.90;;;;;;5055421;28;19911;-79
2021/08/16 10:50:23;;;;;;;;;;;20.80;99.90;;;;;;5054440;28;20379;-80
2021/08/16 10:52:58;;;;;;;;;;;20.50;99.90;;;;;;5054011;28;19936;-80
2021/08/16 10:55:25;;;;;;;;;;;20.50;99.90;;;;;;5048536;28;19950;-80
2021/08/16 10:57:50;;;;;;;;;;;20.90;99.90;;;;;;5044132;28;19909;-79
2021/08/16 11:00:16;;;;;;;;;;;21.50;99.90;;;;;;5039309;28;19997;-80
2021/08/16 11:02:42;;;;;;;;;;;22.00;99.90;;;;;;5038909;28;20274;-80
2021/08/16 11:05:09;;;;;;;;;;;21.70;99.90;;;;;;5044434;28;19988;-81
2021/08/16 11:07:34;;;;;;;;;;;21.90;99.90;;;;;;5047575;28;19917;-81
2021/08/16 11:10:05;;;;;;;;;;;22.00;99.90;;;;;;5047912;28;19905;-80
2021/08/16 11:12:32;;;;;;;;;;;21.80;99.90;;;;;;5039077;28;19905;-80
2021/08/16 11:14:57;;;;;;;;;;;21.40;99.90;;;;;;5043512;28;19916;-80
2021/08/16 11:17:27;;;;;;;;;;;21.00;99.90;;;;;;5041927;28;19920;-81
2021/08/16 11:19:56;;;;;;;;;;;20.60;99.90;;;;;;5054241;28;20289;-80
2021/08/16 11:22:22;;;;;;;;;;;20.30;99.90;;;;;;5056317;28;19923;-80
2021/08/16 11:24:48;;;;;;;;;;;19.80;99.90;;;;;;5073995;28;20413;-80
2021/08/16 11:27:20;;;;;;;;;;;19.60;99.90;;;;;;5070499;28;19955;-80
2021/08/16 11:29:55;;;;;;;;;;;19.60;99.90;;;;;;5058137;28;19905;-80
2021/08/16 11:32:22;;;;;;;;;;;19.60;99.90;;;;;;5045372;28;19909;-81
2021/08/16 11:34:50;;;;;;;;;;;19.60;99.90;;;;;;5042681;28;19996;-80
2021/08/16 11:37:16;;;;;;;;;;;19.50;99.90;;;;;;5038874;28;19917;-80
2021/08/16 11:39:45;;;;;;;;;;;19.60;99.90;;;;;;5051979;28;20364;-80
2021/08/16 11:42:11;;;;;;;;;;;19.40;99.90;;;;;;5052603;28;19916;-80
2021/08/16 11:44:37;;;;;;;;;;;19.40;99.90;;;;;;5056048;28;19964;-80
2021/08/16 11:47:04;;;;;;;;;;;19.30;99.90;;;;;;5052500;28;19947;-81
2021/08/16 11:49:36;;;;;;;;;;;19.10;99.90;;;;;;5057395;28;19921;-80
2021/08/16 11:52:02;;;;;;;;;;;19.20;99.90;;;;;;5055860;28;19919;-80
2021/08/16 11:54:29;;;;;;;;;;;19.30;99.90;;;;;;5038745;28;20044;-80
2021/08/16 11:57:04;;;;;;;;;;;19.40;99.90;;;;;;5052969;28;20020;-81
2021/08/16 11:59:30;;;;;;;;;;;19.40;99.90;;;;;;5047688;28;20282;-81
2021/08/16 12:01:57;;;;;;;;;;;19.50;99.90;;;;;;5053459;28;19921;-81
2021/08/16 12:04:23;;;;;;;;;;;19.70;99.90;;;;;;5055732;28;19913;-81
2021/08/16 12:06:50;;;;;;;;;;;19.80;99.90;;;;;;5045988;28;20396;-81
2021/08/16 12:09:16;;;;;;;;;;;19.50;99.90;;;;;;5053123;28;19909;-80
2021/08/16 12:11:41;;;;;;;;;;;19.70;99.90;;;;;;5037371;28;19974;-80
2021/08/16 12:14:07;;;;;;;;;;;20.10;99.90;;;;;;5055113;28;19913;-80
2021/08/16 12:16:34;;;;;;;;;;;20.70;99.90;;;;;;5052487;28;19976;-80
2021/08/16 12:19:00;;;;;;;;;;;21.10;99.90;;;;;;5048718;28;19916;-80
2021/08/16 12:21:29;;;;;;;;;;;21.30;99.90;;;;;;5057282;28;19909;-80
2021/08/16 12:23:56;;;;;;;;;;;21.10;99.90;;;;;;5059763;28;19908;-80
2021/08/16 12:26:29;;;;;;;;;;;20.60;99.90;;;;;;5058167;28;19913;-80
2021/08/16 12:28:54;;;;;;;;;;;20.50;99.90;;;;;;5056578;28;19915;-80
2021/08/16 12:31:24;;;;;;;;;;;20.60;99.90;;;;;;5045566;28;19913;-80
2021/08/16 12:33:54;;;;;;;;;;;20.30;99.90;;;;;;5046792;28;19963;-80
2021/08/16 12:36:23;;;;;;;;;;;20.50;99.90;;;;;;5049186;28;19955;-80
2021/08/16 12:38:56;;;;;;;;;;;20.70;99.90;;;;;;5041252;28;19971;-80
2021/08/16 12:41:23;;;;;;;;;;;20.60;99.90;;;;;;5043749;28;19924;-80
2021/08/16 12:43:49;;;;;;;;;;;20.60;99.90;;;;;;5046513;28;19909;-80
2021/08/16 12:46:15;;;;;;;;;;;20.20;99.90;;;;;;5054187;28;19966;-80
2021/08/16 12:48:42;;;;;;;;;;;20.30;99.90;;;;;;5054180;28;19958;-80
2021/08/16 12:51:07;;;;;;;;;;;20.10;99.90;;;;;;5044244;28;19916;-80
2021/08/16 12:53:33;;;;;;;;;;;19.90;99.90;;;;;;5047597;28;19909;-80
2021/08/16 12:55:58;;;;;;;;;;;19.80;99.90;;;;;;5040854;28;19909;-80
2021/08/16 12:58:24;;;;;;;;;;;19.50;99.90;;;;;;5051739;28;20301;-80
2021/08/16 13:00:49;;;;;;;;;;;19.40;99.90;;;;;;5062935;28;19973;-80
2021/08/16 13:03:15;;;;;;;;;;;19.50;99.90;;;;;;5041807;28;19913;-80
2021/08/16 13:05:41;;;;;;;;;;;19.40;99.90;;;;;;5052094;28;19912;-80
2021/08/16 13:08:06;;;;;;;;;;;19.50;99.90;;;;;;5056518;28;19919;-80
2021/08/16 13:10:32;;;;;;;;;;;19.40;99.90;;;;;;5053508;28;19927;-80
2021/08/16 13:12:57;;;;;;;;;;;19.20;99.90;;;;;;5058054;28;19913;-80
2021/08/16 13:15:24;;;;;;;;;;;19.10;99.90;;;;;;5042880;28;20374;-80
2021/08/16 13:17:49;;;;;;;;;;;19.00;99.90;;;;;;5053732;28;19959;-81
2021/08/16 13:20:15;;;;;;;;;;;18.90;99.90;;;;;;5058499;28;20358;-81
2021/08/16 13:22:40;;;;;;;;;;;19.00;99.90;;;;;;5056081;28;19975;-81
2021/08/16 13:25:06;;;;;;;;;;;19.10;99.90;;;;;;5057553;28;19905;-81
2021/08/16 13:27:31;;;;;;;;;;;19.30;99.90;;;;;;5058295;28;19966;-81
2021/08/16 13:29:57;;;;;;;;;;;19.40;99.90;;;;;;5057219;28;19905;-81
2021/08/16 13:32:22;;;;;;;;;;;19.30;99.90;;;;;;5056974;28;19984;-81
2021/08/16 13:34:48;;;;;;;;;;;19.60;99.90;;;;;;5056187;28;20453;-81
2021/08/16 13:37:14;;;;;;;;;;;20.00;99.90;;;;;;5055527;28;20293;-81
2021/08/16 13:39:40;;;;;;;;;;;20.60;99.90;;;;;;5055920;28;19905;-81
2021/08/16 13:42:06;;;;;;;;;;;20.90;99.90;;;;;;5054710;28;19912;-81
2021/08/16 13:44:33;;;;;;;;;;;20.60;99.90;;;;;;5057105;28;19905;-81
2021/08/16 13:46:59;;;;;;;;;;;20.70;99.90;;;;;;5047723;28;19905;-80
2021/08/16 13:49:24;;;;;;;;;;;21.00;99.90;;;;;;5045620;28;19924;-81
2021/08/16 13:51:50;;;;;;;;;;;21.00;99.90;;;;;;5042868;28;19909;-81
2021/08/16 13:54:16;;;;;;;;;;;21.00;99.90;;;;;;5040804;28;19967;-81
2021/08/16 13:56:41;;;;;;;;;;;20.80;99.90;;;;;;5053547;28;20365;-81
2021/08/16 13:59:07;;;;;;;;;;;20.50;99.90;;;;;;5056023;28;19904;-80
2021/08/16 14:01:34;;;;;;;;;;;20.50;99.90;;;;;;5044388;28;20284;-80
2021/08/16 14:03:59;;;;;;;;;;;20.30;99.90;;;;;;5055015;28;19908;-80
2021/08/16 14:06:25;;;;;;;;;;;20.10;99.90;;;;;;5045006;28;19958;-80
2021/08/16 14:08:51;;;;;;;;;;;19.80;99.90;;;;;;5042405;28;19950;-81
2021/08/16 14:11:17;;;;;;;;;;;19.50;99.90;;;;;;5046101;28;19905;-81